Time;durP1;ratioP1;P1;durP2;ratioP2;P2;SDS_P1;SDS_P2;PMS_P1;PMS_P2;Temp;Humidity;BMP_temperature;BMP_pressure;BME280_temperature;BME280_humidity;BME280_pressure;Samples;Min_cycle;Max_cycle;Signal;HPM_P1;HPM_P2
2021/04/23 00:00:13;;;;;;;1.00;1.00;;;;;;;;;;5093522;28;20210;-63
2021/04/23 00:02:39;;;;;;;0.50;0.50;;;;;;;;;;5094035;28;20206;-63
2021/04/23 00:05:06;;;;;;;0.88;0.88;;;;;;;;;;5093674;28;20170;-64
2021/04/23 00:07:32;;;;;;;0.60;0.60;;;;;;;;;;5093905;28;20176;-63
2021/04/23 00:09:57;;;;;;;0.60;0.60;;;;;;;;;;5093150;28;20183;-63
2021/04/23 00:12:23;;;;;;;0.70;0.70;;;;;;;;;;5093959;28;20444;-63
2021/04/23 00:14:50;;;;;;;1.10;1.10;;;;;;;;;;5093824;28;20418;-63
2021/04/23 00:17:17;;;;;;;0.50;0.50;;;;;;;;;;5093826;28;20303;-63
2021/04/23 00:19:47;;;;;;;0.60;0.60;;;;;;;;;;5093060;28;20177;-63
2021/04/23 00:22:14;;;;;;;1.00;1.00;;;;;;;;;;5075493;28;20207;-63
2021/04/23 00:24:40;;;;;;;0.73;0.73;;;;;;;;;;5093598;28;20189;-63
2021/04/23 00:27:06;;;;;;;0.65;0.65;;;;;;;;;;5093639;28;20171;-63
2021/04/23 00:29:33;;;;;;;0.40;0.40;;;;;;;;;;5092974;28;20184;-63
2021/04/23 00:31:59;;;;;;;2.25;1.02;;;;;;;;;;5093427;28;20164;-63
2021/04/23 00:34:25;;;;;;;0.85;0.85;;;;;;;;;;5093472;28;20234;-63
2021/04/23 00:36:51;;;;;;;0.60;0.60;;;;;;;;;;5093301;28;20178;-63
2021/04/23 00:39:17;;;;;;;1.13;1.02;;;;;;;;;;5092684;28;20215;-63
2021/04/23 00:41:43;;;;;;;0.68;0.68;;;;;;;;;;5093209;28;20227;-63
2021/04/23 00:44:09;;;;;;;1.33;1.30;;;;;;;;;;5093129;28;20673;-63
2021/04/23 00:46:37;;;;;;;1.07;0.93;;;;;;;;;;5093127;28;20258;-63
2021/04/23 00:49:03;;;;;;;1.65;1.55;;;;;;;;;;5092551;28;20956;-63
2021/04/23 00:51:34;;;;;;;0.90;0.90;;;;;;;;;;5093152;28;20172;-63
2021/04/23 00:54:00;;;;;;;0.50;0.50;;;;;;;;;;5092868;28;20231;-63
2021/04/23 00:56:30;;;;;;;0.63;0.63;;;;;;;;;;5092959;28;20176;-63
2021/04/23 00:58:57;;;;;;;1.38;1.33;;;;;;;;;;5074149;28;20174;-63
2021/04/23 01:01:23;;;;;;;1.17;1.17;;;;;;;;;;5092912;28;20194;-63
2021/04/23 01:03:50;;;;;;;1.00;1.00;;;;;;;;;;5092736;28;20219;-63
2021/04/23 01:06:18;;;;;;;0.95;0.95;;;;;;;;;;5092635;28;20246;-63
2021/04/23 01:08:45;;;;;;;1.33;1.23;;;;;;;;;;5092268;28;20172;-63
2021/04/23 01:11:11;;;;;;;0.63;0.63;;;;;;;;;;5074458;28;20212;-63
2021/04/23 01:13:38;;;;;;;1.13;1.13;;;;;;;;;;5092693;28;20206;-63
2021/04/23 01:16:05;;;;;;;1.67;1.00;;;;;;;;;;5091929;28;20574;-63
2021/04/23 01:18:32;;;;;;;0.73;0.73;;;;;;;;;;5092572;28;20201;-63
2021/04/23 01:21:10;;;;;;;3.35;3.15;;;;;;;;;;5091823;28;20244;-63
2021/04/23 01:23:37;;;;;;;0.93;0.93;;;;;;;;;;5092515;28;20186;-63
2021/04/23 01:26:04;;;;;;;0.70;0.70;;;;;;;;;;5092526;28;20250;-63
2021/04/23 01:28:30;;;;;;;2.95;1.27;;;;;;;;;;5092324;28;20176;-63
2021/04/23 01:30:59;;;;;;;0.90;0.90;;;;;;;;;;5091848;28;20262;-63
2021/04/23 01:33:25;;;;;;;1.13;0.70;;;;;;;;;;5092295;28;20207;-63
2021/04/23 01:35:52;;;;;;;2.20;2.00;;;;;;;;;;5092253;28;20550;-63
2021/04/23 01:38:18;;;;;;;0.88;0.88;;;;;;;;;;5092177;28;20165;-63
2021/04/23 01:40:44;;;;;;;1.67;1.05;;;;;;;;;;5091387;28;20196;-63
2021/04/23 01:43:11;;;;;;;0.90;0.90;;;;;;;;;;5092215;28;20773;-64
2021/04/23 01:45:37;;;;;;;0.80;0.80;;;;;;;;;;5092126;28;20200;-63
2021/04/23 01:48:04;;;;;;;2.55;1.25;;;;;;;;;;5092052;28;20227;-63
2021/04/23 01:50:30;;;;;;;1.08;1.08;;;;;;;;;;5091355;28;20162;-63
2021/04/23 01:52:56;;;;;;;7.63;1.20;;;;;;;;;;5091792;28;20174;-63
2021/04/23 01:55:23;;;;;;;0.93;0.80;;;;;;;;;;5090241;28;20167;-63
2021/04/23 01:57:49;;;;;;;0.70;0.70;;;;;;;;;;5091831;28;20176;-63
2021/04/23 02:00:27;;;;;;;0.88;0.88;;;;;;;;;;5091261;28;20534;-63
2021/04/23 02:02:54;;;;;;;0.60;0.60;;;;;;;;;;5091721;28;20174;-63
2021/04/23 02:05:21;;;;;;;1.60;1.25;;;;;;;;;;5091907;28;20206;-63
2021/04/23 02:07:47;;;;;;;1.25;1.08;;;;;;;;;;5091725;28;20194;-63
2021/04/23 02:10:18;;;;;;;0.75;0.75;;;;;;;;;;5091422;28;20626;-63
2021/04/23 02:12:46;;;;;;;1.17;1.17;;;;;;;;;;5091588;28;20174;-64
2021/04/23 02:15:13;;;;;;;1.25;1.15;;;;;;;;;;5091892;28;20171;-63
2021/04/23 02:17:39;;;;;;;0.77;0.77;;;;;;;;;;5091673;28;20205;-63
2021/04/23 02:20:07;;;;;;;0.88;0.88;;;;;;;;;;5090946;28;20170;-63
2021/04/23 02:22:33;;;;;;;0.70;0.70;;;;;;;;;;5091532;28;20198;-63
2021/04/23 02:24:59;;;;;;;0.60;0.60;;;;;;;;;;5091470;28;20190;-63
2021/04/23 02:27:25;;;;;;;0.50;0.50;;;;;;;;;;5091337;28;20189;-63
2021/04/23 02:29:51;;;;;;;0.60;0.60;;;;;;;;;;5090888;28;20178;-63
2021/04/23 02:32:17;;;;;;;0.50;0.50;;;;;;;;;;5091240;28;20175;-63
2021/04/23 02:34:43;;;;;;;1.25;1.20;;;;;;;;;;5091457;28;20561;-63
2021/04/23 02:37:09;;;;;;;0.75;0.75;;;;;;;;;;5091416;28;20182;-63
2021/04/23 02:39:35;;;;;;;1.02;1.02;;;;;;;;;;5090855;28;20170;-63
2021/04/23 02:42:01;;;;;;;0.70;0.70;;;;;;;;;;5091276;28;20546;-63
2021/04/23 02:44:27;;;;;;;2.63;1.83;;;;;;;;;;5091378;28;20249;-63
2021/04/23 02:46:53;;;;;;;1.08;1.08;;;;;;;;;;5091234;28;20168;-63
2021/04/23 02:49:20;;;;;;;0.57;0.57;;;;;;;;;;5090742;28;20254;-63
2021/04/23 02:51:46;;;;;;;0.90;0.90;;;;;;;;;;5091407;28;20174;-63
2021/04/23 02:54:13;;;;;;;0.55;0.55;;;;;;;;;;5091161;28;20217;-63
2021/04/23 02:56:40;;;;;;;1.20;1.15;;;;;;;;;;5091267;28;20166;-63
2021/04/23 02:59:06;;;;;;;2.08;0.98;;;;;;;;;;5090533;28;20216;-63
2021/04/23 03:01:35;;;;;;;0.60;0.60;;;;;;;;;;5091247;28;20246;-63
2021/04/23 03:04:01;;;;;;;0.80;0.80;;;;;;;;;;5091148;28;20187;-63
2021/04/23 03:06:27;;;;;;;0.90;0.90;;;;;;;;;;5091417;28;20166;-63
2021/04/23 03:08:53;;;;;;;0.85;0.85;;;;;;;;;;5090444;28;20652;-63
2021/04/23 03:11:21;;;;;;;1.00;1.00;;;;;;;;;;5091089;28;20179;-63
2021/04/23 03:13:52;;;;;;;1.73;1.63;;;;;;;;;;5091129;28;20202;-63
2021/04/23 03:16:18;;;;;;;1.20;1.10;;;;;;;;;;5091173;28;20175;-63
2021/04/23 03:18:45;;;;;;;3.17;2.08;;;;;;;;;;5090497;28;20185;-63
2021/04/23 03:21:12;;;;;;;1.25;1.15;;;;;;;;;;5091111;28;20204;-63
2021/04/23 03:23:39;;;;;;;1.95;1.85;;;;;;;;;;5090931;28;20182;-63
2021/04/23 03:26:06;;;;;;;1.38;1.38;;;;;;;;;;5091082;28;20555;-63
2021/04/23 03:28:32;;;;;;;1.52;1.42;;;;;;;;;;5090994;28;20167;-63
2021/04/23 03:30:58;;;;;;;0.70;0.70;;;;;;;;;;5090396;28;20166;-63
2021/04/23 03:33:25;;;;;;;1.52;1.42;;;;;;;;;;5090752;28;20230;-63
2021/04/23 03:35:52;;;;;;;0.80;0.80;;;;;;;;;;5090944;28;20674;-63
2021/04/23 03:38:19;;;;;;;1.00;1.00;;;;;;;;;;5090747;28;20177;-63
2021/04/23 03:40:45;;;;;;;0.82;0.82;;;;;;;;;;5093126;28;20287;-63
2021/04/23 03:43:12;;;;;;;0.60;0.60;;;;;;;;;;5094442;28;20556;-63
2021/04/23 03:45:38;;;;;;;0.50;0.50;;;;;;;;;;5094468;28;20175;-63
2021/04/23 03:48:07;;;;;;;2.28;2.08;;;;;;;;;;5094700;28;20737;-63
2021/04/23 03:50:33;;;;;;;0.88;0.88;;;;;;;;;;5093605;28;20171;-63
2021/04/23 03:53:01;;;;;;;1.05;1.05;;;;;;;;;;5094105;28;20214;-63
2021/04/23 03:55:32;;;;;;;0.80;0.80;;;;;;;;;;5094310;28;20162;-63
2021/04/23 03:57:59;;;;;;;1.00;1.00;;;;;;;;;;5076159;28;20175;-63
2021/04/23 04:00:28;;;;;;;0.70;0.70;;;;;;;;;;5093471;28;20170;-63
2021/04/23 04:02:54;;;;;;;0.82;0.82;;;;;;;;;;5093984;28;20170;-63
2021/04/23 04:05:20;;;;;;;1.65;1.55;;;;;;;;;;5092189;28;20166;-63
2021/04/23 04:07:46;;;;;;;2.05;0.70;;;;;;;;;;5093881;28;20167;-63
2021/04/23 04:10:13;;;;;;;0.60;0.60;;;;;;;;;;5093512;28;20174;-63
2021/04/23 04:12:39;;;;;;;0.60;0.60;;;;;;;;;;5093990;28;20178;-63
2021/04/23 04:15:06;;;;;;;1.40;1.05;;;;;;;;;;5093907;28;20178;-63
2021/04/23 04:17:32;;;;;;;0.90;0.90;;;;;;;;;;5093668;28;20550;-63
2021/04/23 04:19:58;;;;;;;0.70;0.70;;;;;;;;;;5093027;28;20212;-63
2021/04/23 04:22:24;;;;;;;0.73;0.73;;;;;;;;;;5093675;28;20237;-63
2021/04/23 04:24:50;;;;;;;0.60;0.60;;;;;;;;;;5093527;28;20190;-63
2021/04/23 04:27:17;;;;;;;1.83;1.73;;;;;;;;;;5093580;28;20249;-63
2021/04/23 04:29:43;;;;;;;0.80;0.80;;;;;;;;;;5092842;28;20170;-63
2021/04/23 04:32:09;;;;;;;0.50;0.50;;;;;;;;;;5084678;28;20259;-63
2021/04/23 04:34:35;;;;;;;1.17;1.17;;;;;;;;;;5072644;28;20199;-63
2021/04/23 04:37:01;;;;;;;0.88;0.88;;;;;;;;;;5081985;28;20174;-63
2021/04/23 04:39:27;;;;;;;0.70;0.70;;;;;;;;;;5075411;28;20182;-63
2021/04/23 04:41:53;;;;;;;0.60;0.60;;;;;;;;;;5067855;28;20570;-63
2021/04/23 04:44:19;;;;;;;1.33;1.33;;;;;;;;;;5083469;28;20190;-63
2021/04/23 04:46:46;;;;;;;1.27;1.17;;;;;;;;;;5092581;28;20320;-62
2021/04/23 04:49:12;;;;;;;0.90;0.90;;;;;;;;;;5074451;28;20547;-63
2021/04/23 04:51:39;;;;;;;2.35;1.23;;;;;;;;;;5071531;28;20178;-63
2021/04/23 04:54:05;;;;;;;0.68;0.68;;;;;;;;;;5075492;28;20275;-63
2021/04/23 04:56:31;;;;;;;1.60;1.50;;;;;;;;;;5085263;28;20686;-62
2021/04/23 04:58:57;;;;;;;1.05;1.05;;;;;;;;;;5084440;28;20182;-62
2021/04/23 05:01:24;;;;;;;0.77;0.77;;;;;;;;;;5054991;28;20218;-63
2021/04/23 05:03:50;;;;;;;0.88;0.88;;;;;;;;;;5075002;28;20283;-62
2021/04/23 05:06:18;;;;;;;0.90;0.90;;;;;;;;;;5072220;28;20175;-63
2021/04/23 05:08:44;;;;;;;1.90;0.90;;;;;;;;;;5071570;28;20305;-63
2021/04/23 05:11:10;;;;;;;0.70;0.70;;;;;;;;;;5071634;28;20207;-63
2021/04/23 05:13:36;;;;;;;4.05;1.13;;;;;;;;;;5072080;28;20201;-63
2021/04/23 05:16:02;;;;;;;2.22;2.08;;;;;;;;;;5071974;28;20176;-63
2021/04/23 05:18:28;;;;;;;1.98;1.88;;;;;;;;;;5075940;28;20174;-63
2021/04/23 05:20:54;;;;;;;1.10;0.70;;;;;;;;;;5091500;28;20206;-63
2021/04/23 05:23:20;;;;;;;5.00;1.52;;;;;;;;;;5087371;28;20231;-63
2021/04/23 05:25:46;;;;;;;0.70;0.70;;;;;;;;;;5073362;28;20182;-63
2021/04/23 05:28:12;;;;;;;0.60;0.60;;;;;;;;;;5072047;28;20175;-63
2021/04/23 05:30:39;;;;;;;1.33;1.23;;;;;;;;;;5072807;28;20408;-63
2021/04/23 05:33:06;;;;;;;0.85;0.85;;;;;;;;;;5092409;28;20190;-63
2021/04/23 05:35:32;;;;;;;0.90;0.90;;;;;;;;;;5092281;28;20170;-63
2021/04/23 05:37:59;;;;;;;1.38;1.38;;;;;;;;;;5072193;28;20167;-63
2021/04/23 05:40:30;;;;;;;2.05;1.35;;;;;;;;;;5071466;28;20172;-63
2021/04/23 05:42:56;;;;;;;0.93;0.93;;;;;;;;;;5072165;28;20179;-63
2021/04/23 05:45:23;;;;;;;0.98;0.85;;;;;;;;;;5072088;28;20167;-63
2021/04/23 05:47:49;;;;;;;0.90;0.90;;;;;;;;;;5054001;28;20179;-63
2021/04/23 05:50:15;;;;;;;1.20;1.20;;;;;;;;;;5071015;28;20178;-63
2021/04/23 05:52:43;;;;;;;0.50;0.50;;;;;;;;;;5071808;28;20317;-63
2021/04/23 05:55:10;;;;;;;0.50;0.50;;;;;;;;;;5071792;28;20179;-63
2021/04/23 05:57:36;;;;;;;0.95;0.95;;;;;;;;;;5071647;28;20175;-63
2021/04/23 06:00:04;;;;;;;0.70;0.70;;;;;;;;;;5071046;28;20171;-63
2021/04/23 06:02:30;;;;;;;0.60;0.60;;;;;;;;;;5071198;28;20275;-63
2021/04/23 06:04:56;;;;;;;1.42;1.25;;;;;;;;;;5053502;28;20199;-63
2021/04/23 06:07:22;;;;;;;2.25;2.15;;;;;;;;;;5071780;28;20557;-63
2021/04/23 06:09:48;;;;;;;0.70;0.70;;;;;;;;;;5070980;28;20167;-63
2021/04/23 06:12:14;;;;;;;0.60;0.60;;;;;;;;;;5071586;28;20410;-63
2021/04/23 06:14:40;;;;;;;1.00;1.00;;;;;;;;;;5071332;28;20268;-63
2021/04/23 06:17:06;;;;;;;0.90;0.90;;;;;;;;;;5071414;28;20777;-63
2021/04/23 06:19:33;;;;;;;1.17;1.17;;;;;;;;;;5070769;28;20409;-63
2021/04/23 06:22:00;;;;;;;1.20;1.13;;;;;;;;;;5071410;28;20194;-63
2021/04/23 06:24:26;;;;;;;1.27;1.17;;;;;;;;;;5071428;28;20248;-63
2021/04/23 06:26:52;;;;;;;1.35;1.25;;;;;;;;;;5071261;28;20246;-63
2021/04/23 06:29:19;;;;;;;0.73;0.73;;;;;;;;;;5070686;28;20221;-63
2021/04/23 06:31:45;;;;;;;1.70;1.38;;;;;;;;;;5071394;28;20206;-63
2021/04/23 06:34:11;;;;;;;1.08;1.08;;;;;;;;;;5071218;28;20206;-63
2021/04/23 06:36:37;;;;;;;0.98;0.98;;;;;;;;;;5071236;28;20694;-63
2021/04/23 06:39:04;;;;;;;1.05;0.95;;;;;;;;;;5070477;28;20692;-63
2021/04/23 06:41:30;;;;;;;1.10;1.10;;;;;;;;;;5087663;28;20245;-63
2021/04/23 06:43:56;;;;;;;1.48;1.48;;;;;;;;;;5090893;28;20195;-63
2021/04/23 06:46:22;;;;;;;1.30;1.20;;;;;;;;;;5091095;28;20169;-63
2021/04/23 06:48:48;;;;;;;11.38;1.42;;;;;;;;;;5072452;28;20212;-63
2021/04/23 06:51:15;;;;;;;0.90;0.90;;;;;;;;;;5090865;28;20176;-63
2021/04/23 06:53:42;;;;;;;2.15;1.92;;;;;;;;;;5091022;28;20286;-63
2021/04/23 06:56:08;;;;;;;0.80;0.80;;;;;;;;;;5091120;28;20200;-63
2021/04/23 06:58:34;;;;;;;1.37;1.27;;;;;;;;;;5091046;28;20236;-63
2021/04/23 07:01:00;;;;;;;2.40;1.90;;;;;;;;;;5090195;28;20458;-63
2021/04/23 07:03:26;;;;;;;2.40;1.77;;;;;;;;;;5090885;28;20279;-63
2021/04/23 07:05:54;;;;;;;1.25;0.95;;;;;;;;;;5091215;28;20175;-63
2021/04/23 07:08:20;;;;;;;2.38;1.33;;;;;;;;;;5090994;28;20268;-63
2021/04/23 07:10:46;;;;;;;1.65;1.45;;;;;;;;;;5090276;28;20215;-63
2021/04/23 07:13:13;;;;;;;2.33;2.00;;;;;;;;;;5090746;28;20194;-63
2021/04/23 07:15:40;;;;;;;2.65;1.35;;;;;;;;;;5093820;28;20173;-63
2021/04/23 07:18:06;;;;;;;2.25;2.10;;;;;;;;;;5094906;28;20586;-63
2021/04/23 07:20:32;;;;;;;1.55;1.45;;;;;;;;;;5094073;28;20158;-63
2021/04/23 07:22:58;;;;;;;1.45;1.35;;;;;;;;;;5094576;28;20253;-65
2021/04/23 07:25:25;;;;;;;2.60;1.98;;;;;;;;;;5094509;28;20171;-63
2021/04/23 07:27:51;;;;;;;1.98;1.75;;;;;;;;;;5094467;28;20664;-63
2021/04/23 07:30:19;;;;;;;0.93;0.93;;;;;;;;;;5093761;28;20189;-63
2021/04/23 07:32:46;;;;;;;1.45;1.35;;;;;;;;;;5094264;28;20171;-63
2021/04/23 07:35:12;;;;;;;2.63;1.95;;;;;;;;;;5094673;28;20597;-63
2021/04/23 07:37:38;;;;;;;1.95;1.85;;;;;;;;;;5094336;28;20649;-63
2021/04/23 07:40:05;;;;;;;5.13;1.58;;;;;;;;;;5093660;28;20177;-63
2021/04/23 07:42:31;;;;;;;1.35;1.23;;;;;;;;;;5094130;28;20197;-63
2021/04/23 07:44:57;;;;;;;2.47;1.98;;;;;;;;;;5094106;28;20243;-63
2021/04/23 07:47:24;;;;;;;2.15;1.70;;;;;;;;;;5092935;28;20170;-63
2021/04/23 07:49:50;;;;;;;2.10;1.98;;;;;;;;;;5092651;28;20616;-63
2021/04/23 07:52:16;;;;;;;2.83;2.65;;;;;;;;;;5093835;28;20645;-63
2021/04/23 07:54:42;;;;;;;1.80;1.70;;;;;;;;;;5094101;28;20248;-63
2021/04/23 07:57:09;;;;;;;2.70;1.55;;;;;;;;;;5093957;28;20167;-63
2021/04/23 07:59:36;;;;;;;1.50;1.40;;;;;;;;;;5093080;28;20174;-63
2021/04/23 08:02:03;;;;;;;3.20;1.40;;;;;;;;;;5093803;28;20258;-63
2021/04/23 08:04:29;;;;;;;3.20;1.90;;;;;;;;;;5093928;28;20201;-63
2021/04/23 08:06:56;;;;;;;2.40;1.90;;;;;;;;;;5093814;28;20162;-63
2021/04/23 08:09:22;;;;;;;2.30;2.03;;;;;;;;;;5093044;28;20598;-62
2021/04/23 08:11:48;;;;;;;1.80;1.53;;;;;;;;;;5093539;28;20549;-64
2021/04/23 08:14:14;;;;;;;1.80;1.70;;;;;;;;;;5093750;28;20795;-64
2021/04/23 08:16:41;;;;;;;2.33;1.80;;;;;;;;;;5093677;28;20409;-62
2021/04/23 08:19:07;;;;;;;1.97;1.87;;;;;;;;;;5092873;28;20401;-62
2021/04/23 08:21:33;;;;;;;2.77;1.87;;;;;;;;;;5093467;28;20635;-62
2021/04/23 08:23:59;;;;;;;1.97;1.60;;;;;;;;;;5093447;28;20423;-62
2021/04/23 08:26:25;;;;;;;3.30;2.47;;;;;;;;;;5092868;28;20396;-62
2021/04/23 08:28:51;;;;;;;2.27;1.20;;;;;;;;;;5092623;28;20404;-63
2021/04/23 08:31:17;;;;;;;5.97;1.50;;;;;;;;;;5092602;28;20742;-63
2021/04/23 08:33:44;;;;;;;2.03;1.50;;;;;;;;;;5093291;28;20461;-63
2021/04/23 08:36:10;;;;;;;1.67;1.50;;;;;;;;;;5093073;28;20407;-63
2021/04/23 08:38:36;;;;;;;2.80;1.60;;;;;;;;;;5075155;28;20416;-63
2021/04/23 08:41:02;;;;;;;2.40;1.73;;;;;;;;;;5092572;28;20862;-63
2021/04/23 08:43:30;;;;;;;2.03;1.60;;;;;;;;;;5093262;28;20431;-63
2021/04/23 08:45:56;;;;;;;6.93;2.63;;;;;;;;;;5093343;28;20480;-63
2021/04/23 08:48:22;;;;;;;3.60;1.80;;;;;;;;;;5093147;28;20405;-63
2021/04/23 08:50:49;;;;;;;2.37;1.90;;;;;;;;;;5092622;28;20829;-63
2021/04/23 08:53:17;;;;;;;2.03;1.73;;;;;;;;;;5093103;28;20531;-63
2021/04/23 08:55:43;;;;;;;1.93;1.30;;;;;;;;;;5093032;28;20401;-63
2021/04/23 08:58:09;;;;;;;1.97;1.20;;;;;;;;;;5074727;28;20409;-63
2021/04/23 09:00:36;;;;;;;1.90;1.47;;;;;;;;;;5092553;28;20432;-63
2021/04/23 09:03:02;;;;;;;2.10;1.80;;;;;;;;;;5074682;28;20441;-63
2021/04/23 09:05:28;;;;;;;1.63;1.40;;;;;;;;;;5092873;28;20401;-63
2021/04/23 09:07:58;;;;;;;2.83;1.37;;;;;;;;;;5092809;28;20772;-63
2021/04/23 09:10:24;;;;;;;4.47;2.00;;;;;;;;;;5091942;28;20400;-63
2021/04/23 09:13:04;;;;;;;1.70;1.57;;;;;;;;;;5092738;28;20404;-63
2021/04/23 09:15:30;;;;;;;3.53;1.80;;;;;;;;;;5092981;28;20561;-63
2021/04/23 09:18:08;;;;;;;1.47;1.37;;;;;;;;;;5092760;28;20432;-63
2021/04/23 09:20:35;;;;;;;2.87;1.67;;;;;;;;;;5091924;28;20411;-63
2021/04/23 09:23:18;;;;;;;1.87;1.30;;;;;;;;;;5092434;28;20510;-63
2021/04/23 09:25:46;;;;;;;2.10;1.60;;;;;;;;;;5092416;28;20433;-63
2021/04/23 09:28:12;;;;;;;2.23;1.50;;;;;;;;;;5092343;28;20401;-63
2021/04/23 09:30:38;;;;;;;1.60;1.50;;;;;;;;;;5091776;28;20389;-63
2021/04/23 09:33:04;;;;;;;4.03;1.60;;;;;;;;;;5092240;28;20932;-63
2021/04/23 09:35:36;;;;;;;2.67;1.57;;;;;;;;;;5092372;28;20402;-63
2021/04/23 09:38:02;;;;;;;5.63;1.37;;;;;;;;;;5091773;28;20840;-63
2021/04/23 09:40:32;;;;;;;3.17;1.90;;;;;;;;;;5091517;28;20408;-63
2021/04/23 09:43:00;;;;;;;2.10;1.50;;;;;;;;;;5092175;28;20456;-63
2021/04/23 09:45:30;;;;;;;2.60;1.80;;;;;;;;;;5090992;28;20394;-63
2021/04/23 09:47:56;;;;;;;2.70;1.93;;;;;;;;;;5091769;28;20782;-63
2021/04/23 09:50:27;;;;;;;2.80;1.30;;;;;;;;;;5091006;28;20431;-63
2021/04/23 09:52:55;;;;;;;2.80;2.17;;;;;;;;;;5091576;28;20368;-63
2021/04/23 09:55:22;;;;;;;3.10;1.57;;;;;;;;;;5091792;28;20390;-63
2021/04/23 09:57:56;;;;;;;2.50;1.67;;;;;;;;;;5091771;28;20401;-64
2021/04/23 10:00:25;;;;;;;3.23;1.30;;;;;;;;;;5091165;28;20396;-63
2021/04/23 10:02:53;;;;;;;2.70;1.53;;;;;;;;;;5091390;28;20457;-63
2021/04/23 10:05:29;;;;;;;1.47;1.20;;;;;;;;;;5091815;28;20408;-63
2021/04/23 10:07:55;;;;;;;1.67;1.53;;;;;;;;;;5091575;28;20899;-63
2021/04/23 10:10:21;;;;;;;4.43;1.90;;;;;;;;;;5090760;28;20416;-63
2021/04/23 10:12:54;;;;;;;2.30;1.60;;;;;;;;;;5091295;28;20400;-63
2021/04/23 10:15:22;;;;;;;4.53;1.67;;;;;;;;;;5073727;28;20422;-64
2021/04/23 10:17:49;;;;;;;1.73;1.63;;;;;;;;;;5091583;28;20418;-63
2021/04/23 10:20:20;;;;;;;2.00;1.43;;;;;;;;;;5090835;28;20410;-63
2021/04/23 10:22:46;;;;;;;2.97;1.50;;;;;;;;;;5091111;28;20540;-63
2021/04/23 10:25:13;;;;;;;1.60;1.40;;;;;;;;;;5091192;28;20901;-63
2021/04/23 10:27:41;;;;;;;3.20;1.90;;;;;;;;;;5091446;28;20381;-63
2021/04/23 10:30:08;;;;;;;2.37;1.40;;;;;;;;;;5090643;28;20443;-63
2021/04/23 10:32:35;;;;;;;2.37;1.77;;;;;;;;;;5091263;28;20379;-63
2021/04/23 10:35:01;;;;;;;1.83;1.27;;;;;;;;;;5091098;28;20432;-63
2021/04/23 10:37:27;;;;;;;1.83;1.30;;;;;;;;;;5091224;28;20749;-63
2021/04/23 10:39:53;;;;;;;2.10;1.70;;;;;;;;;;5090414;28;20415;-63
2021/04/23 10:42:38;;;;;;;2.10;1.67;;;;;;;;;;5091362;28;20547;-63
2021/04/23 10:45:05;;;;;;;1.87;1.60;;;;;;;;;;5091157;28;20412;-63
2021/04/23 10:47:35;;;;;;;1.43;1.23;;;;;;;;;;5072956;28;20466;-63
2021/04/23 10:50:12;;;;;;;1.73;1.50;;;;;;;;;;5094289;28;20807;-63
2021/04/23 10:53:19;;;;;;;2.70;1.50;;;;;;;;;;5095206;28;20400;-63
2021/04/23 10:55:52;;;;;;;2.37;1.60;;;;;;;;;;4993192;28;20425;-63
2021/04/23 10:58:21;;;;;;;1.67;1.30;;;;;;;;;;4993193;28;20405;-63
2021/04/23 11:00:48;;;;;;;2.63;1.23;;;;;;;;;;5047543;28;20431;-63
2021/04/23 11:03:22;;;;;;;3.17;1.80;;;;;;;;;;5095179;28;20428;-63
2021/04/23 11:05:52;;;;;;;2.80;1.13;;;;;;;;;;5095198;28;20483;-63
2021/04/23 11:08:18;;;;;;;1.67;1.57;;;;;;;;;;5094900;28;20832;-63
2021/04/23 11:11:07;;;;;;;1.30;1.20;;;;;;;;;;5094464;28;20785;-63
2021/04/23 11:13:34;;;;;;;4.07;1.70;;;;;;;;;;5094689;28;20477;-63
2021/04/23 11:16:18;;;;;;;2.07;1.40;;;;;;;;;;5094991;28;20385;-63
2021/04/23 11:18:50;;;;;;;2.23;1.53;;;;;;;;;;5094169;28;20407;-62
2021/04/23 11:21:35;;;;;;;5.20;2.10;;;;;;;;;;5093474;28;20456;-63
2021/04/23 11:24:15;;;;;;;1.20;1.10;;;;;;;;;;5094815;28;20435;-63
2021/04/23 11:29:19;;;;;;;2.30;1.60;;;;;;;;;;5094079;28;20415;-63
2021/04/23 11:32:09;;;;;;;1.93;1.77;;;;;;;;;;5094807;28;20407;-64
2021/04/23 11:34:37;;;;;;;2.63;1.57;;;;;;;;;;5081772;28;20413;-63
2021/04/23 11:37:11;;;;;;;6.90;2.03;;;;;;;;;;5094482;28;20416;-63
2021/04/23 11:39:43;;;;;;;1.13;1.03;;;;;;;;;;5094069;28;20743;-63
2021/04/23 11:42:17;;;;;;;4.47;1.77;;;;;;;;;;5094505;28;20451;-63
2021/04/23 11:44:46;;;;;;;3.07;1.53;;;;;;;;;;5094457;28;20431;-63
2021/04/23 11:47:13;;;;;;;2.23;2.03;;;;;;;;;;5094803;28;20399;-63
2021/04/23 11:49:39;;;;;;;1.70;1.20;;;;;;;;;;5093697;28;20411;-63
2021/04/23 11:52:05;;;;;;;2.40;1.47;;;;;;;;;;5094325;28;20752;-63
2021/04/23 11:54:42;;;;;;;2.23;1.67;;;;;;;;;;5094229;28;20424;-63
2021/04/23 11:57:09;;;;;;;3.57;1.53;;;;;;;;;;5094175;28;20409;-62
2021/04/23 11:59:35;;;;;;;2.70;1.70;;;;;;;;;;5093594;28;20408;-62
2021/04/23 12:02:01;;;;;;;2.57;1.90;;;;;;;;;;5094043;28;20455;-62
2021/04/23 12:04:40;;;;;;;1.47;1.37;;;;;;;;;;5094165;28;20880;-65
2021/04/23 12:07:06;;;;;;;1.47;1.37;;;;;;;;;;5094144;28;20427;-64
2021/04/23 12:09:32;;;;;;;1.53;0.87;;;;;;;;;;5093309;28;21154;-64
2021/04/23 12:12:03;;;;;;;1.00;0.90;;;;;;;;;;5094122;28;20404;-62
2021/04/23 12:14:45;;;;;;;1.17;1.07;;;;;;;;;;5094007;28;20436;-64
2021/04/23 12:17:12;;;;;;;1.80;1.30;;;;;;;;;;5093936;28;20387;-62
2021/04/23 12:19:38;;;;;;;1.00;0.93;;;;;;;;;;5093743;28;20438;-62
2021/04/23 12:22:04;;;;;;;3.77;1.50;;;;;;;;;;5093768;28;20943;-62
2021/04/23 12:24:30;;;;;;;2.37;1.37;;;;;;;;;;5093932;28;20747;-62
2021/04/23 12:26:56;;;;;;;2.10;1.57;;;;;;;;;;5093782;28;20408;-65
2021/04/23 12:29:23;;;;;;;3.00;1.50;;;;;;;;;;5093277;28;20459;-62
2021/04/23 12:31:49;;;;;;;1.30;1.20;;;;;;;;;;5093425;28;20473;-62
2021/04/23 12:34:16;;;;;;;1.30;1.20;;;;;;;;;;5093893;28;20880;-63
2021/04/23 12:36:43;;;;;;;2.80;1.80;;;;;;;;;;5093601;28;20416;-62
2021/04/23 12:39:12;;;;;;;1.93;1.43;;;;;;;;;;5093007;28;20405;-63
2021/04/23 12:41:43;;;;;;;0.90;0.90;;;;;;;;;;5093450;28;20434;-62
2021/04/23 12:44:09;;;;;;;1.60;1.50;;;;;;;;;;5093509;28;20436;-62
2021/04/23 12:46:35;;;;;;;0.93;0.87;;;;;;;;;;5093422;28;20414;-62
2021/04/23 12:49:20;;;;;;;2.10;2.00;;;;;;;;;;5092445;28;20540;-64
2021/04/23 12:51:48;;;;;;;2.33;1.40;;;;;;;;;;5094780;28;20408;-62
2021/04/23 12:54:15;;;;;;;0.87;0.77;;;;;;;;;;5093142;28;20448;-62
2021/04/23 12:56:41;;;;;;;2.00;0.77;;;;;;;;;;5093130;28;20413;-65
2021/04/23 12:59:08;;;;;;;0.80;0.80;;;;;;;;;;5092516;28;20849;-65
2021/04/23 13:01:34;;;;;;;4.60;1.77;;;;;;;;;;5093001;28;20462;-63
2021/04/23 13:04:06;;;;;;;2.30;1.70;;;;;;;;;;5093041;28;20486;-65
2021/04/23 13:06:32;;;;;;;1.53;1.27;;;;;;;;;;5074733;28;20908;-65
2021/04/23 13:09:02;;;;;;;1.90;1.70;;;;;;;;;;5092281;28;20416;-65
2021/04/23 13:11:28;;;;;;;3.17;1.30;;;;;;;;;;5092416;28;20470;-65
2021/04/23 13:13:54;;;;;;;2.40;1.30;;;;;;;;;;5092389;28;20923;-65
2021/04/23 13:16:21;;;;;;;3.00;1.53;;;;;;;;;;5092860;28;20404;-65
2021/04/23 13:18:47;;;;;;;2.27;1.70;;;;;;;;;;5092211;28;20737;-62
2021/04/23 13:21:14;;;;;;;3.07;1.33;;;;;;;;;;5093096;28;20456;-64
2021/04/23 13:23:44;;;;;;;2.07;1.43;;;;;;;;;;5092749;28;20435;-64
2021/04/23 13:26:13;;;;;;;5.33;2.17;;;;;;;;;;5092649;28;20903;-64
2021/04/23 13:28:43;;;;;;;3.53;1.60;;;;;;;;;;5092174;28;20414;-64
2021/04/23 13:31:18;;;;;;;2.60;2.33;;;;;;;;;;5092139;28;20408;-64
2021/04/23 13:33:50;;;;;;;2.50;1.20;;;;;;;;;;5067783;28;20393;-64
2021/04/23 13:36:18;;;;;;;1.20;1.10;;;;;;;;;;5068781;28;20211;-64
2021/04/23 13:38:49;;;;;;;3.37;1.70;;;;;;;;;;5068162;28;20401;-63
2021/04/23 13:41:17;;;;;;;1.70;1.57;;;;;;;;;;5068829;28;20436;-64
2021/04/23 13:43:51;;;;;;;1.33;1.23;;;;;;;;;;5067118;28;20427;-64
2021/04/23 13:46:18;;;;;;;2.30;1.37;;;;;;;;;;5068500;28;20382;-64
2021/04/23 13:48:52;;;;;;;1.73;1.50;;;;;;;;;;5067974;28;20429;-64
2021/04/23 13:51:20;;;;;;;3.13;1.27;;;;;;;;;;5068536;28;20401;-64
2021/04/23 13:53:48;;;;;;;1.13;0.80;;;;;;;;;;5068454;28;20519;-64
2021/04/23 13:56:15;;;;;;;3.43;1.77;;;;;;;;;;5068180;28;20413;-64
2021/04/23 13:58:50;;;;;;;1.47;1.37;;;;;;;;;;5068309;28;20759;-64
2021/04/23 14:01:24;;;;;;;2.17;1.27;;;;;;;;;;5068419;28;20408;-64
2021/04/23 14:03:50;;;;;;;1.50;1.40;;;;;;;;;;5068265;28;20791;-64
2021/04/23 14:06:16;;;;;;;2.43;2.00;;;;;;;;;;5068264;28;20711;-64
2021/04/23 14:08:42;;;;;;;1.63;1.20;;;;;;;;;;5067911;28;20381;-64
2021/04/23 14:11:08;;;;;;;1.27;0.97;;;;;;;;;;5066402;28;20414;-64
2021/04/23 14:13:34;;;;;;;1.23;1.00;;;;;;;;;;5067661;28;20462;-64
2021/04/23 14:16:00;;;;;;;1.37;1.27;;;;;;;;;;5067714;28;20405;-64
2021/04/23 14:18:26;;;;;;;4.20;1.83;;;;;;;;;;5067431;28;20410;-64
2021/04/23 14:20:52;;;;;;;3.00;2.23;;;;;;;;;;5066945;28;20448;-64
2021/04/23 14:23:18;;;;;;;3.13;1.80;;;;;;;;;;5067435;28;20823;-64
2021/04/23 14:25:44;;;;;;;1.43;1.00;;;;;;;;;;5067730;28;20409;-64
2021/04/23 14:28:10;;;;;;;1.83;1.10;;;;;;;;;;5067250;28;20417;-64
2021/04/23 14:30:36;;;;;;;3.60;1.07;;;;;;;;;;5066672;28;20476;-64
2021/04/23 14:33:02;;;;;;;1.50;1.23;;;;;;;;;;5067139;28;20492;-64
2021/04/23 14:35:28;;;;;;;2.77;1.83;;;;;;;;;;5067425;28;20417;-64
2021/04/23 14:37:54;;;;;;;3.10;1.93;;;;;;;;;;5067117;28;20405;-64
2021/04/23 14:40:20;;;;;;;2.00;1.30;;;;;;;;;;5066956;28;20425;-64
2021/04/23 14:42:46;;;;;;;1.80;1.67;;;;;;;;;;5066968;28;20444;-64
2021/04/23 14:45:12;;;;;;;2.27;1.83;;;;;;;;;;5054212;28;20921;-64
2021/04/23 14:47:38;;;;;;;4.30;1.80;;;;;;;;;;5054126;28;20673;-64